AirNav   Air Wisconsin Up To $57,000 Bonus
 
 391 users online  

SN97 G&Ag Airport
Moscow, Kansas, USA

GOING TO MOSCOW?


FAA INFORMATION EFFECTIVE 22 APRIL 2021

Location

FAA Identifier: SN97
Lat/Long: 37-19-35.0850N 101-11-51.5790W
37-19.584750N 101-11.859650W
37.3264125,-101.1976608
(estimated)
Elevation: 3056 ft. / 931.5 m (surveyed)
Variation: 09E (1985)
From city: 1 mile E of MOSCOW, KS
Time zone: UTC -5 (UTC -6 during Standard Time)
Zip code: 67952

Airport Operations

Airport use: Private use. Permission required prior to landing
Activation date: 11/1975
Control tower: no
ARTCC: KANSAS CITY CENTER
FSS: WICHITA FLIGHT SERVICE STATION
Attendance: UNATNDD
Wind indicator: yes
Segmented circle: no

Airport Communications

WX AWOS-3PT at HQG (13 nm SW): 118.600 (620-544-4000)
WX AWOS-3 at ULS (19 nm NW): 118.95 (620-424-3747)

Nearby radio navigation aids

VOR radial/distance  VOR name  Freq  Var
LBLr316/20.1LIBERAL VORTAC112.3011E

 
NDB name  Hdg/Dist  Freq  Var  ID
HUGOTON032/12.936509EHQG .... --.- --.
ULYSSES147/18.239506EULS ..- .-.. ...

Airport Services

Fuel available: A

Runway Information

Runway 18/36

Dimensions: 2400 x 75 ft. / 732 x 23 m
Surface: asphalt
RUNWAY 18  RUNWAY 36
Traffic pattern: leftleft

Airport Ownership and Management from official FAA records

Ownership: Privately-owned
Owner: GREG GREWELL
PO BOX 1114 RD A
HUGOTON, KS 67951
Phone 620-428-1306
Manager: JUSTIN MC CURRY
PO BOX 62
MOSCOW, KS 67952
Phone 620-428-1306

Airport Operational Statistics

Aircraft based on the field: 2
Single engine airplanes: 2
    

Additional Remarks

FOR CD CTC KANSAS CITY ARTCC AT 913-254-8508.

Instrument Procedures

There are no published instrument procedures at SN97.

Some nearby airports with instrument procedures:

KHQG - Hugoton Municipal Airport (13 nm SW)
KULS - Ulysses Airport (19 nm NW)
KLBL - Liberal Mid-America Regional Airport (20 nm SE)
KJHN - Stanton County Municipal Airport (30 nm NW)
KEHA - Elkhart-Morton County Airport (38 nm SW)
 
Loc | Ops | Rwys | IFR | FBO | Links
Com | Nav | Svcs | Stats | Notes

AirBoss

 
Area around SN97 (G&Ag Airport)
 
Road maps at: MapQuest Bing Google
 
Aerial photo
No photo
 
Sectional chart

 
Airport distance calculator
Flying to G&Ag Airport? Find the distance to fly.

From to SN97

Sunrise and sunset
Times for 13-May-2021
 Local
(UTC-5)
 Zulu
(UTC)
Morning civil twilight06:1011:10
Sunrise06:3911:39
Sunset20:4401:44
Evening civil twilight21:1302:13

Current date and time
Zulu (UTC)  13-May-2021 08:10:34
Local (UTC-5)  13-May-2021 03:10:34
 
METAR
KHQG 
13nm SW 
130755Z AUTO 16007KT 10SM CLR 05/04 A3034 RMK AO2 T00520042
K19S 
20nm NE 
130755Z AUTO 17007KT 10SM CLR 06/04 A3035 RMK AO2 T00600044
KLBL 
21nm SE 
130756Z AUTO 13007KT 10SM CLR 07/04 A3035 RMK AO2 SLP274 T00670044
TAF
KLBL 
21nm SE 
130520Z 1306/1406 VRB06KT P6SM FEW150 FM131300 19012KT P6SM SCT120 FM131500 19018G28KT P6SM SCT120 FM140200 16014KT P6SM FEW250
NOTAMs
Click for the latest NOTAMs
NOTAMs are issued by the DoD/FAA and will open in a separate window not controlled by AirNav.

 

 
 

Would you like to see your business listed on this page?

 If your business provides an interesting product or service to pilots, flight crews, aircraft, or users of the G&Ag Airport, you should consider listing it here.  To start the listing process, click on the button below
 
Add a business
 

Other Pages about G&Ag Airport

Update a link
 
Copyright © AirNav, LLC. All rights reserved. Privacy Policy  Contact